createdAt,value
2018-04-10T00:00:11.252Z,12.12
2018-04-10T00:10:06.509Z,12.00
2018-04-10T00:20:04.537Z,11.87
2018-04-10T00:30:01.464Z,12.05
2018-04-10T00:39:58.415Z,12.11
2018-04-10T00:49:56.019Z,11.69
2018-04-10T00:59:51.391Z,11.57
2018-04-10T01:09:47.241Z,11.42
2018-04-10T01:19:44.581Z,11.17
2018-04-10T01:29:41.472Z,11.10
2018-04-10T01:39:37.160Z,10.95
2018-04-10T01:49:34.816Z,10.98
2018-04-10T01:59:31.214Z,10.78
2018-04-10T02:19:28.605Z,10.41
2018-04-10T02:29:25.845Z,10.39
2018-04-10T02:39:21.688Z,9.88
2018-04-10T02:49:18.828Z,9.82
2018-04-10T02:59:13.935Z,9.38
2018-04-10T03:09:10.557Z,9.55
2018-04-10T03:19:08.687Z,9.13
2018-04-10T03:29:05.862Z,9.19
2018-04-10T03:39:03.401Z,9.12
2018-04-10T03:49:00.973Z,9.12
2018-04-10T03:58:57.428Z,9.02
2018-04-10T04:08:53.130Z,9.25
2018-04-10T04:18:52.003Z,9.46
2018-04-10T04:28:44.727Z,9.72
2018-04-10T04:38:40.910Z,10.01
2018-04-10T04:48:35.387Z,10.16
2018-04-10T04:58:30.993Z,10.46
2018-04-10T05:08:29.109Z,10.66
2018-04-10T05:18:26.606Z,10.77
2018-04-10T05:28:23.006Z,11.03
2018-04-10T05:38:20.458Z,11.17
2018-04-10T05:48:19.343Z,11.32
2018-04-10T05:58:15.857Z,11.51
2018-04-10T06:08:13.407Z,11.69
2018-04-10T06:18:09.994Z,12.00
2018-04-10T06:28:08.955Z,12.39
2018-04-10T06:38:06.256Z,12.63
2018-04-10T06:48:02.415Z,13.38
2018-04-10T06:58:02.076Z,14.11
2018-04-10T07:07:58.882Z,14.27
2018-04-10T07:17:56.605Z,14.44
2018-04-10T07:27:52.729Z,14.74
2018-04-10T07:37:46.728Z,14.80
2018-04-10T07:47:41.707Z,15.13
2018-04-10T07:57:39.387Z,14.78
2018-04-10T08:07:33.611Z,15.01
2018-04-10T08:17:32.385Z,15.85
2018-04-10T08:27:30.313Z,15.82
2018-04-10T08:37:23.292Z,15.51
2018-04-10T08:47:13.492Z,14.91
2018-04-10T08:57:10.059Z,14.84
2018-04-10T09:07:07.771Z,15.51
2018-04-10T09:17:02.143Z,15.88
2018-04-10T09:26:59.697Z,16.75
2018-04-10T09:36:54.502Z,16.73
2018-04-10T09:46:49.698Z,17.25
2018-04-10T09:56:46.478Z,16.77
2018-04-10T10:06:38.765Z,16.56
2018-04-10T10:16:35.275Z,16.81
2018-04-10T10:26:13.369Z,17.70
2018-04-10T10:36:10.281Z,17.29
2018-04-10T10:45:49.297Z,17.38
2018-04-10T10:55:44.274Z,17.38
2018-04-10T11:05:21.776Z,17.50
2018-04-10T11:14:58.929Z,17.63
2018-04-10T11:24:55.012Z,17.73
2018-04-10T11:34:33.471Z,18.06
2018-04-10T11:44:11.106Z,17.79
2018-04-10T11:53:48.451Z,19.69
2018-04-10T12:03:26.041Z,18.50
2018-04-10T12:13:01.758Z,18.31
2018-04-10T12:22:36.255Z,17.70
2018-04-10T12:32:11.239Z,17.60
2018-04-10T12:41:47.344Z,17.84
2018-04-10T12:51:24.669Z,18.24
2018-04-10T13:01:01.502Z,18.64
2018-04-10T13:10:38.370Z,19.71
2018-04-10T13:20:17.772Z,19.05
2018-04-10T13:29:47.089Z,18.57
2018-04-10T13:39:22.451Z,18.18
2018-04-10T13:48:59.251Z,18.53
2018-04-10T13:58:37.428Z,18.58
2018-04-10T14:08:14.424Z,19.05
2018-04-10T14:17:52.028Z,19.91
2018-04-10T14:27:26.751Z,19.17
2018-04-10T14:37:04.507Z,18.35
2018-04-10T14:46:31.377Z,17.74
2018-04-10T14:56:06.277Z,17.79
2018-04-10T15:05:45.062Z,18.21
2018-04-10T15:15:26.461Z,18.55
2018-04-10T15:24:54.032Z,17.84
2018-04-10T15:34:28.658Z,17.10
2018-04-10T15:44:05.682Z,17.17
2018-04-10T15:53:43.576Z,17.50
2018-04-10T16:03:19.830Z,17.23
2018-04-10T16:12:56.811Z,17.39
2018-04-10T16:22:33.216Z,16.98
2018-04-10T16:32:14.053Z,16.80
2018-04-10T16:41:41.902Z,16.57
2018-04-10T16:51:16.636Z,16.55
2018-04-10T17:00:53.188Z,16.38
2018-04-10T17:10:30.131Z,16.14
2018-04-10T17:20:05.090Z,15.88
2018-04-10T17:29:41.776Z,15.59
2018-04-10T17:39:20.598Z,15.43
2018-04-10T17:48:48.550Z,15.21
2018-04-10T17:58:25.363Z,15.12
2018-04-10T18:08:00.645Z,14.88
2018-04-10T18:17:37.089Z,14.68
2018-04-10T18:27:32.226Z,14.31
2018-04-10T18:37:29.722Z,13.83
2018-04-10T18:47:23.694Z,13.91
2018-04-10T18:57:18.867Z,13.53
2018-04-10T19:07:13.233Z,13.70
2018-04-10T19:17:09.427Z,13.41
2018-04-10T19:27:07.028Z,12.91
2018-04-10T19:37:01.887Z,12.48
2018-04-10T19:46:56.248Z,12.12
2018-04-10T19:56:52.811Z,12.16
2018-04-10T20:06:46.835Z,11.95
2018-04-10T20:16:42.734Z,11.59
2018-04-10T20:26:39.768Z,11.53
2018-04-10T20:36:35.025Z,11.28
2018-04-10T20:46:31.046Z,11.21
2018-04-10T20:56:28.846Z,11.08
2018-04-10T21:06:24.512Z,10.99
2018-04-10T21:16:22.044Z,10.99
2018-04-10T21:26:17.098Z,10.85
2018-04-10T21:36:11.755Z,10.98
2018-04-10T21:46:09.520Z,10.80
2018-04-10T21:56:06.108Z,10.91
2018-04-10T22:06:02.116Z,10.73
2018-04-10T22:15:59.097Z,10.71
2018-04-10T22:25:57.825Z,10.80
2018-04-10T22:35:45.824Z,10.41
2018-04-10T22:45:43.402Z,10.34
2018-04-10T22:55:41.304Z,10.53
2018-04-10T23:05:37.364Z,10.26
2018-04-10T23:15:34.269Z,10.22
2018-04-10T23:25:31.334Z,10.22
2018-04-10T23:35:28.361Z,10.18
2018-04-10T23:45:24.055Z,10.13
2018-04-10T23:55:21.205Z,10.34
